Airfield :
LOGIN :

Register | Disclaimer

   EN    FR    IT 

 










Legend :    VFR   Marginal VFR   IFR   Intensive IFR   Very Intensive IFR
Visi :
Ceiling :
>= 8 km
>= 3000ft
5 to 8 km
1000 to 3000 ft
1500m to 5 km
500 to 1000 ft
800 to 1500m
200 to 500 ft
< 800m
< 200 ft
Symbols :   Thunderstorms  Fog  Heavy snow  Heavy precipitations  Wind > 20 kt
SIGMETs :     Misc.  Thunderstorms  Icing  Turbulence  Mountain Waves  Volcanic Ashes







- Airport Elevation : 74 ft
- IATA code : LRH
- Download approach charts


LFBH - La Rochelle Ile de Ré

CURRENT METAR :
  • 272300Z AUTO 32011KT CAVOK 16/15 Q1016 NOSIG

EXPIRED METARs :
  • 272230Z AUTO 32010KT CAVOK 16/14 Q1016 NOSIG
  • 272200Z AUTO 32010KT CAVOK 16/14 Q1016 NOSIG
  • 272130Z AUTO 31010KT CAVOK 17/15 Q1016 NOSIG
  • 272100Z AUTO 31010KT CAVOK 17/15 Q1016 NOSIG
  • 272030Z AUTO 31010KT CAVOK 17/15 Q1016 NOSIG

TAF TAF LFBH
Valid from the 27 at 18:00 until the 28 at 18:00 UTC


271700Z 2718/2818 30010KT CAVOK
BECMG 2806/2808 36008KT
TEMPO 2806/2812 4000 SHRA BKN010 BKN050TCU
TEMPO 2812/2818 4000 SHRA BKN040TCU
PROB30
TEMPO 2815/2818 VRB15G30KT 2000 TSRA BKN030CB
ATIS : +33 5 46 00 13 92
No reported NOTAMs for that airfield.
1 SIGMET reported for the Bordeaux FIR (LFBB) :
 
Embedded thunderstorms and hail
LFBB SIGMET 9 VALID 272200/280100 LFPW
LFBB BORDEAUX FIR/UIR EMBD TSGR OBS WI N4515 E00115 - N4345 E00030 - N4400 W00030 - N4530 E00030 - N4515 E00115 TOP FL360 MOV NW 20KT NC=



MET'MAP, your aeronautical weather chart ! - Copyright ORBIFLY December 2007 - Disclaimer

ORBIFLY MET'MAP TEAM :

Programming & Development : Alexandra Zaïnal
Concept & Development : Baudouin d'Aumeries
Co-Development & Prog : Marc-Olivier Méhu
Technical & hardware support : Manuel Goepfert

Contact : metmap@orbifly.com




SOURCES & CREDITS :

   NOAA